sensor_id;sensor_type;location;lat;lon;timestamp;pressure;altitude;pressure_sealevel;temperature;humidity
49801;BME280;35698;50.232;30.540;2023-05-14T00:00:39;101110.57;;;19.27;44.58
49801;BME280;35698;50.232;30.540;2023-05-14T00:02:01;101115.93;;;19.27;44.04
49801;BME280;35698;50.232;30.540;2023-05-14T00:03:04;101111.42;;;19.27;43.69
49801;BME280;35698;50.232;30.540;2023-05-14T00:04:16;101112.88;;;19.43;44.10
49801;BME280;35698;50.232;30.540;2023-05-14T00:05:19;101116.29;;;19.33;43.67
49801;BME280;35698;50.232;30.540;2023-05-14T00:06:23;101115.92;;;19.38;43.41
49801;BME280;35698;50.232;30.540;2023-05-14T00:07:44;101112.14;;;19.41;43.84
49801;BME280;35698;50.232;30.540;2023-05-14T00:08:55;101115.58;;;19.54;44.64
49801;BME280;35698;50.232;30.540;2023-05-14T00:09:58;101116.05;;;19.37;44.88
49801;BME280;35698;50.232;30.540;2023-05-14T00:11:10;101121.64;;;19.45;45.22
49801;BME280;35698;50.232;30.540;2023-05-14T00:12:13;101114.47;;;19.34;44.82
49801;BME280;35698;50.232;30.540;2023-05-14T00:13:16;101119.34;;;19.29;44.91
49801;BME280;35698;50.232;30.540;2023-05-14T00:14:38;101118.23;;;19.31;44.69
49801;BME280;35698;50.232;30.540;2023-05-14T00:15:49;101123.72;;;19.41;44.88
49801;BME280;35698;50.232;30.540;2023-05-14T00:16:52;101128.10;;;19.31;44.82
49801;BME280;35698;50.232;30.540;2023-05-14T00:28:29;101118.84;;;19.69;44.10
49801;BME280;35698;50.232;30.540;2023-05-14T00:29:40;101117.02;;;19.69;43.62
49801;BME280;35698;50.232;30.540;2023-05-14T00:30:44;101118.36;;;19.63;43.32
49801;BME280;35698;50.232;30.540;2023-05-14T00:31:47;101114.23;;;19.59;41.10
49801;BME280;35698;50.232;30.540;2023-05-14T00:32:58;101112.58;;;19.90;42.24
49801;BME280;35698;50.232;30.540;2023-05-14T00:34:01;101112.95;;;19.86;42.95
49801;BME280;35698;50.232;30.540;2023-05-14T00:35:05;101110.88;;;19.89;42.76
49801;BME280;35698;50.232;30.540;2023-05-14T00:36:16;101114.09;;;20.04;42.92
49801;BME280;35698;50.232;30.540;2023-05-14T00:37:19;101107.34;;;19.89;43.00
49801;BME280;35698;50.232;30.540;2023-05-14T00:38:31;101118.13;;;19.98;43.15
49801;BME280;35698;50.232;30.540;2023-05-14T00:39:34;101105.38;;;19.91;43.60
49801;BME280;35698;50.232;30.540;2023-05-14T00:40:37;101111.78;;;20.00;42.92
49801;BME280;35698;50.232;30.540;2023-05-14T00:41:40;101112.16;;;19.95;42.20
49801;BME280;35698;50.232;30.540;2023-05-14T00:42:52;101112.34;;;20.14;42.16
49801;BME280;35698;50.232;30.540;2023-05-14T00:43:55;101118.22;;;20.08;42.62
49801;BME280;35698;50.232;30.540;2023-05-14T00:45:07;101106.72;;;20.17;42.36
49801;BME280;35698;50.232;30.540;2023-05-14T00:46:11;101114.55;;;20.09;42.26
49801;BME280;35698;50.232;30.540;2023-05-14T00:47:22;101119.23;;;20.28;42.09
49801;BME280;35698;50.232;30.540;2023-05-14T00:48:25;101127.07;;;20.20;41.70
49801;BME280;35698;50.232;30.540;2023-05-14T00:49:29;101126.30;;;20.29;41.82
49801;BME280;35698;50.232;30.540;2023-05-14T00:50:41;101129.30;;;20.47;41.29
49801;BME280;35698;50.232;30.540;2023-05-14T00:51:44;101119.09;;;20.41;40.84
49801;BME280;35698;50.232;30.540;2023-05-14T00:52:48;101121.33;;;20.56;40.43
49801;BME280;35698;50.232;30.540;2023-05-14T00:53:52;101116.41;;;20.61;40.48
49801;BME280;35698;50.232;30.540;2023-05-14T00:54:55;101116.68;;;20.58;41.07
49801;BME280;35698;50.232;30.540;2023-05-14T00:56:07;101120.89;;;20.82;40.73
49801;BME280;35698;50.232;30.540;2023-05-14T00:57:10;101116.34;;;20.73;41.11
49801;BME280;35698;50.232;30.540;2023-05-14T00:58:13;101124.14;;;20.76;41.57
49801;BME280;35698;50.232;30.540;2023-05-14T00:59:25;101122.20;;;20.87;41.32
49801;BME280;35698;50.232;30.540;2023-05-14T01:00:28;101129.38;;;20.77;41.51
49801;BME280;35698;50.232;30.540;2023-05-14T01:01:40;101119.52;;;20.87;41.71
49801;BME280;35698;50.232;30.540;2023-05-14T01:02:44;101128.66;;;20.75;41.43
49801;BME280;35698;50.232;30.540;2023-05-14T01:03:47;101122.56;;;20.73;41.44
49801;BME280;35698;50.232;30.540;2023-05-14T01:04:51;101124.41;;;20.73;40.85
49801;BME280;35698;50.232;30.540;2023-05-14T01:13:05;101119.62;;;20.23;42.34
49801;BME280;35698;50.232;30.540;2023-05-14T01:14:23;101118.13;;;20.30;42.16
49801;BME280;35698;50.232;30.540;2023-05-14T01:15:28;101114.77;;;20.17;41.62
49801;BME280;35698;50.232;30.540;2023-05-14T01:16:33;101113.53;;;20.21;41.28
49801;BME280;35698;50.232;30.540;2023-05-14T01:18:05;101115.31;;;20.32;41.22
49801;BME280;35698;50.232;30.540;2023-05-14T01:19:09;101114.51;;;20.20;41.24
49801;BME280;35698;50.232;30.540;2023-05-14T01:20:25;101113.53;;;20.21;40.87
49801;BME280;35698;50.232;30.540;2023-05-14T01:21:36;101114.21;;;20.03;40.88
49801;BME280;35698;50.232;30.540;2023-05-14T01:22:48;101118.05;;;20.21;41.24
49801;BME280;35698;50.232;30.540;2023-05-14T01:23:52;101120.05;;;20.08;41.81
49801;BME280;35698;50.232;30.540;2023-05-14T01:24:55;101114.55;;;20.09;41.39
49801;BME280;35698;50.232;30.540;2023-05-14T01:26:06;101113.66;;;20.20;41.25
49801;BME280;35698;50.232;30.540;2023-05-14T01:27:30;101116.17;;;20.01;41.37
49801;BME280;35698;50.232;30.540;2023-05-14T01:28:35;101112.63;;;20.00;41.26
49801;BME280;35698;50.232;30.540;2023-05-14T01:29:42;101112.16;;;19.95;41.65
49801;BME280;35698;50.232;30.540;2023-05-14T01:30:58;101111.28;;;20.06;41.84
49801;BME280;35698;50.232;30.540;2023-05-14T01:32:03;101126.42;;;19.95;41.41
49801;BME280;35698;50.232;30.540;2023-05-14T01:33:17;101110.05;;;20.10;41.24
49801;BME280;35698;50.232;30.540;2023-05-14T01:34:23;101109.83;;;20.02;41.05
49801;BME280;35698;50.232;30.540;2023-05-14T01:35:35;101112.17;;;20.27;40.86
49801;BME280;35698;50.232;30.540;2023-05-14T01:36:40;101106.51;;;20.09;41.05
49801;BME280;35698;50.232;30.540;2023-05-14T01:37:54;101115.23;;;20.22;41.52
49801;BME280;35698;50.232;30.540;2023-05-14T01:39:07;101114.38;;;20.22;41.34
49801;BME280;35698;50.232;30.540;2023-05-14T01:40:12;101105.66;;;20.09;40.82
49801;BME280;35698;50.232;30.540;2023-05-14T01:41:24;101111.11;;;20.18;40.96
49801;BME280;35698;50.232;30.540;2023-05-14T01:42:28;101104.93;;;20.07;41.22
49801;BME280;35698;50.232;30.540;2023-05-14T01:43:32;101105.78;;;20.07;41.14
49801;BME280;35698;50.232;30.540;2023-05-14T01:44:36;101097.02;;;20.05;41.07
49801;BME280;35698;50.232;30.540;2023-05-14T01:45:48;101109.27;;;20.19;41.19
49801;BME280;35698;50.232;30.540;2023-05-14T01:46:51;101102.38;;;20.05;41.35
49801;BME280;35698;50.232;30.540;2023-05-14T01:47:54;101099.69;;;20.05;41.34
49801;BME280;35698;50.232;30.540;2023-05-14T01:49:05;101099.14;;;20.22;40.67
49801;BME280;35698;50.232;30.540;2023-05-14T01:50:09;101102.33;;;20.16;41.14
49801;BME280;35698;50.232;30.540;2023-05-14T01:51:20;101104.71;;;20.30;41.19
49801;BME280;35698;50.232;30.540;2023-05-14T01:52:23;101103.05;;;20.18;41.33
49801;BME280;35698;50.232;30.540;2023-05-14T01:53:27;101105.17;;;20.36;41.44
49801;BME280;35698;50.232;30.540;2023-05-14T01:54:38;101112.87;;;20.40;41.51
49801;BME280;35698;50.232;30.540;2023-05-14T01:55:41;101110.08;;;20.30;39.95
49801;BME280;35698;50.232;30.540;2023-05-14T01:56:45;101119.70;;;20.33;40.07
49801;BME280;35698;50.232;30.540;2023-05-14T01:57:48;101120.42;;;20.35;40.24
49801;BME280;35698;50.232;30.540;2023-05-14T01:58:51;101111.06;;;20.29;40.40
49801;BME280;35698;50.232;30.540;2023-05-14T02:00:03;101106.13;;;20.46;40.40
49801;BME280;35698;50.232;30.540;2023-05-14T02:01:07;101115.91;;;20.36;39.54
49801;BME280;35698;50.232;30.540;2023-05-14T02:02:10;101117.38;;;20.40;40.49
49801;BME280;35698;50.232;30.540;2023-05-14T02:03:21;101121.45;;;20.55;40.41
49801;BME280;35698;50.232;30.540;2023-05-14T02:04:24;101117.59;;;20.48;40.47
49801;BME280;35698;50.232;30.540;2023-05-14T02:05:28;101122.70;;;20.51;40.31
49801;BME280;35698;50.232;30.540;2023-05-14T02:06:39;101118.70;;;20.66;40.36
49801;BME280;35698;50.232;30.540;2023-05-14T02:07:42;101115.50;;;20.51;40.57
49801;BME280;35698;50.232;30.540;2023-05-14T02:08:45;101118.18;;;20.51;40.99
49801;BME280;35698;50.232;30.540;2023-05-14T02:09:57;101116.28;;;20.63;41.10
49801;BME280;35698;50.232;30.540;2023-05-14T02:11:00;101121.52;;;20.44;41.13
49801;BME280;35698;50.232;30.540;2023-05-14T02:12:03;101123.95;;;20.36;41.16
49801;BME280;35698;50.232;30.540;2023-05-14T02:13:15;101110.55;;;20.36;41.18
49801;BME280;35698;50.232;30.540;2023-05-14T02:14:18;101105.41;;;20.12;41.23
49801;BME280;35698;50.232;30.540;2023-05-14T02:15:29;101108.59;;;20.06;41.84
49801;BME280;35698;50.232;30.540;2023-05-14T02:16:33;101109.30;;;19.87;41.59
49801;BME280;35698;50.232;30.540;2023-05-14T02:17:44;101105.16;;;19.83;41.88
49801;BME280;35698;50.232;30.540;2023-05-14T02:18:47;101107.39;;;19.67;41.98
49801;BME280;35698;50.232;30.540;2023-05-14T02:19:50;101102.39;;;19.51;42.78
49801;BME280;35698;50.232;30.540;2023-05-14T02:20:53;101103.01;;;19.43;42.65
49801;BME280;35698;50.232;30.540;2023-05-14T02:22:04;101101.78;;;19.47;42.64
49801;BME280;35698;50.232;30.540;2023-05-14T02:23:07;101103.88;;;19.32;42.91
49801;BME280;35698;50.232;30.540;2023-05-14T02:24:19;101097.17;;;19.38;42.62
49801;BME280;35698;50.232;30.540;2023-05-14T02:25:22;101100.70;;;19.27;42.39
49801;BME280;35698;50.232;30.540;2023-05-14T02:26:33;101108.98;;;19.36;43.00
49801;BME280;35698;50.232;30.540;2023-05-14T02:27:36;101104.61;;;19.23;42.84
49801;BME280;35698;50.232;30.540;2023-05-14T02:28:39;101100.10;;;19.24;43.10
49801;BME280;35698;50.232;30.540;2023-05-14T02:29:51;101101.31;;;19.31;43.10
49801;BME280;35698;50.232;30.540;2023-05-14T02:30:58;101099.16;;;19.03;42.78
49801;BME280;35698;50.232;30.540;2023-05-14T02:32:01;101102.80;;;18.90;42.84
49801;BME280;35698;50.232;30.540;2023-05-14T02:33:13;101101.22;;;18.99;43.21
49801;BME280;35698;50.232;30.540;2023-05-14T02:34:16;101099.39;;;18.88;43.38
49801;BME280;35698;50.232;30.540;2023-05-14T02:35:27;101103.53;;;18.92;43.90
49801;BME280;35698;50.232;30.540;2023-05-14T02:36:30;101099.13;;;18.80;43.38
49801;BME280;35698;50.232;30.540;2023-05-14T02:37:35;101095.48;;;18.81;42.96
49801;BME280;35698;50.232;30.540;2023-05-14T02:38:38;101105.45;;;18.79;43.18
49801;BME280;35698;50.232;30.540;2023-05-14T02:39:41;101098.88;;;18.72;42.96
49801;BME280;35698;50.232;30.540;2023-05-14T02:40:45;101091.70;;;18.73;42.94
49801;BME280;35698;50.232;30.540;2023-05-14T02:41:56;101097.92;;;18.84;43.29
49801;BME280;35698;50.232;30.540;2023-05-14T02:42:59;101097.66;;;18.76;43.06
49801;BME280;35698;50.232;30.540;2023-05-14T02:44:11;101104.74;;;18.88;42.99
49801;BME280;35698;50.232;30.540;2023-05-14T02:45:14;101095.60;;;18.80;43.09
49801;BME280;35698;50.232;30.540;2023-05-14T02:46:17;101105.83;;;18.86;43.15
49801;BME280;35698;50.232;30.540;2023-05-14T02:47:20;101104.50;;;18.91;43.04
49801;BME280;35698;50.232;30.540;2023-05-14T02:48:31;101103.27;;;19.07;43.11
49801;BME280;35698;50.232;30.540;2023-05-14T02:49:35;101098.91;;;18.94;43.55
49801;BME280;35698;50.232;30.540;2023-05-14T02:50:38;101101.82;;;18.91;43.49
49801;BME280;35698;50.232;30.540;2023-05-14T02:51:49;101103.27;;;19.07;43.78
49801;BME280;35698;50.232;30.540;2023-05-14T02:52:52;101103.05;;;18.98;43.53
49801;BME280;35698;50.232;30.540;2023-05-14T02:54:03;101102.17;;;19.20;43.04
49801;BME280;35698;50.232;30.540;2023-05-14T02:55:08;101100.83;;;19.15;43.06
49801;BME280;35698;50.232;30.540;2023-05-14T02:56:19;101107.77;;;19.28;42.86
49801;BME280;35698;50.232;30.540;2023-05-14T02:57:22;101102.66;;;19.14;42.87
49801;BME280;35698;50.232;30.540;2023-05-14T02:58:34;101098.52;;;19.21;43.31
49801;BME280;35698;50.232;30.540;2023-05-14T02:59:37;101097.78;;;19.08;43.52
49801;BME280;35698;50.232;30.540;2023-05-14T03:00:48;101097.05;;;19.17;43.10
49801;BME280;35698;50.232;30.540;2023-05-14T03:01:52;101092.70;;;19.05;42.92
49801;BME280;35698;50.232;30.540;2023-05-14T03:03:03;101093.77;;;19.14;42.85
49801;BME280;35698;50.232;30.540;2023-05-14T03:04:08;101092.95;;;19.02;43.13
49801;BME280;35698;50.232;30.540;2023-05-14T03:05:11;101096.48;;;19.03;42.96
49801;BME280;35698;50.232;30.540;2023-05-14T03:06:23;101096.33;;;19.15;42.88
49801;BME280;35698;50.232;30.540;2023-05-14T03:07:26;101103.14;;;19.08;43.00
49801;BME280;35698;50.232;30.540;2023-05-14T03:08:37;101107.65;;;19.19;43.54
49801;BME280;35698;50.232;30.540;2023-05-14T03:09:40;101103.75;;;19.12;43.55
49801;BME280;35698;50.232;30.540;2023-05-14T03:10:44;101102.53;;;19.16;43.50
49801;BME280;35698;50.232;30.540;2023-05-14T03:11:55;101099.98;;;19.25;43.58
49801;BME280;35698;50.232;30.540;2023-05-14T03:12:58;101103.51;;;19.15;43.67
49801;BME280;35698;50.232;30.540;2023-05-14T03:14:01;101100.10;;;19.13;43.43
49801;BME280;35698;50.232;30.540;2023-05-14T03:15:05;101104.24;;;19.17;43.35
49801;BME280;35698;50.232;30.540;2023-05-14T03:16:16;101105.33;;;19.37;43.58
49801;BME280;35698;50.232;30.540;2023-05-14T03:17:19;101105.21;;;19.27;43.51
49801;BME280;35698;50.232;30.540;2023-05-14T03:18:22;101103.99;;;19.31;43.51
49801;BME280;35698;50.232;30.540;2023-05-14T03:19:26;101105.69;;;19.43;43.34
49801;BME280;35698;50.232;30.540;2023-05-14T03:20:29;101110.80;;;19.46;43.41
49801;BME280;35698;50.232;30.540;2023-05-14T03:21:40;101112.03;;;19.64;43.67
49801;BME280;35698;50.232;30.540;2023-05-14T03:22:44;101113.25;;;19.60;43.84
49801;BME280;35698;50.232;30.540;2023-05-14T03:23:55;101106.39;;;19.79;43.86
49801;BME280;35698;50.232;30.540;2023-05-14T03:24:58;101105.31;;;19.70;43.64
49801;BME280;35698;50.232;30.540;2023-05-14T03:26:09;101109.30;;;19.87;43.53
49801;BME280;35698;50.232;30.540;2023-05-14T03:27:12;101110.17;;;19.76;43.43
49801;BME280;35698;50.232;30.540;2023-05-14T03:28:23;101101.85;;;19.90;43.32
49801;BME280;35698;50.232;30.540;2023-05-14T03:29:27;101102.73;;;19.80;43.12
49801;BME280;35698;50.232;30.540;2023-05-14T03:30:30;101105.16;;;19.83;43.01
49801;BME280;35698;50.232;30.540;2023-05-14T03:31:43;101111.19;;;19.96;43.07
49801;BME280;35698;50.232;30.540;2023-05-14T03:32:47;101099.80;;;19.83;43.01
49801;BME280;35698;50.232;30.540;2023-05-14T03:33:50;101096.87;;;19.86;43.17
49801;BME280;35698;50.232;30.540;2023-05-14T03:34:54;101107.59;;;19.86;43.36
49801;BME280;35698;50.232;30.540;2023-05-14T03:35:57;101106.48;;;19.88;43.40
49801;BME280;35698;50.232;30.540;2023-05-14T03:37:08;101106.48;;;19.88;43.66
49801;BME280;35698;50.232;30.540;2023-05-14T03:38:11;101098.60;;;19.76;43.73
49801;BME280;35698;50.232;30.540;2023-05-14T03:39:22;101107.78;;;19.94;43.56
49801;BME280;35698;50.232;30.540;2023-05-14T03:40:25;101110.45;;;19.62;43.79
49801;BME280;35698;50.232;30.540;2023-05-14T03:41:29;101105.45;;;19.57;44.14
49801;BME280;35698;50.232;30.540;2023-05-14T03:42:40;101103.61;;;19.69;44.01
49801;BME280;35698;50.232;30.540;2023-05-14T03:43:43;101107.52;;;19.65;44.12
49801;BME280;35698;50.232;30.540;2023-05-14T03:44:55;101109.42;;;19.85;44.09
49801;BME280;35698;50.232;30.540;2023-05-14T03:45:58;101108.70;;;19.83;44.04
49801;BME280;35698;50.232;30.540;2023-05-14T03:47:02;101115.13;;;19.92;44.07
49801;BME280;35698;50.232;30.540;2023-05-14T03:48:05;101110.93;;;19.99;44.22
49801;BME280;35698;50.232;30.540;2023-05-14T03:49:08;101114.55;;;20.09;44.17
49801;BME280;35698;50.232;30.540;2023-05-14T03:50:12;101123.92;;;20.15;44.22
49801;BME280;35698;50.232;30.540;2023-05-14T03:51:23;101117.61;;;20.37;44.23
49801;BME280;35698;50.232;30.540;2023-05-14T03:52:26;101123.95;;;20.36;44.10
49801;BME280;35698;50.232;30.540;2023-05-14T03:53:29;101126.23;;;20.51;43.93
49801;BME280;35698;50.232;30.540;2023-05-14T03:54:40;101124.27;;;20.74;43.72
49801;BME280;35698;50.232;30.540;2023-05-14T03:55:44;101121.85;;;20.71;43.59
49801;BME280;35698;50.232;30.540;2023-05-14T03:56:47;101118.64;;;20.77;44.03
49801;BME280;35698;50.232;30.540;2023-05-14T03:57:50;101123.72;;;20.80;43.97
49801;BME280;35698;50.232;30.540;2023-05-14T03:59:01;101115.77;;;21.00;43.68
49801;BME280;35698;50.232;30.540;2023-05-14T04:00:05;101122.39;;;20.95;43.50
49801;BME280;35698;50.232;30.540;2023-05-14T04:01:16;101115.14;;;21.17;43.66
49801;BME280;35698;50.232;30.540;2023-05-14T04:02:20;101113.45;;;21.16;43.71
49801;BME280;35698;50.232;30.540;2023-05-14T04:03:23;101113.45;;;21.16;43.87
49801;BME280;35698;50.232;30.540;2023-05-14T04:04:27;101109.50;;;21.20;43.79
49801;BME280;35698;50.232;30.540;2023-05-14T04:05:38;101105.94;;;21.40;43.81
49801;BME280;35698;50.232;30.540;2023-05-14T04:06:41;101106.10;;;21.48;43.26
49801;BME280;35698;50.232;30.540;2023-05-14T04:07:44;101117.16;;;21.55;42.80
49801;BME280;35698;50.232;30.540;2023-05-14T04:08:48;101113.79;;;21.63;43.05
49801;BME280;35698;50.232;30.540;2023-05-14T04:09:59;101116.91;;;21.77;42.85
49801;BME280;35698;50.232;30.540;2023-05-14T04:11:04;101117.48;;;21.81;42.76
49801;BME280;35698;50.232;30.540;2023-05-14T04:12:07;101111.83;;;21.93;43.22
49801;BME280;35698;50.232;30.540;2023-05-14T04:13:10;101116.41;;;22.03;43.33
49801;BME280;35698;50.232;30.540;2023-05-14T04:14:14;101116.56;;;22.11;43.20
49801;BME280;35698;50.232;30.540;2023-05-14T04:15:17;101121.80;;;22.12;43.06
49801;BME280;35698;50.232;30.540;2023-05-14T04:16:28;101123.64;;;22.31;43.06
49801;BME280;35698;50.232;30.540;2023-05-14T04:17:31;101122.94;;;22.29;42.82
49801;BME280;35698;50.232;30.540;2023-05-14T04:18:42;101123.78;;;22.49;42.70
49801;BME280;35698;50.232;30.540;2023-05-14T04:19:45;101114.85;;;22.48;42.56
49801;BME280;35698;50.232;30.540;2023-05-14T04:20:56;101128.27;;;22.68;42.38
49801;BME280;35698;50.232;30.540;2023-05-14T04:21:59;101122.31;;;22.64;42.21
49801;BME280;35698;50.232;30.540;2023-05-14T04:23:10;101124.01;;;22.84;41.90
49801;BME280;35698;50.232;30.540;2023-05-14T04:24:13;101120.05;;;22.79;41.84
49801;BME280;35698;50.232;30.540;2023-05-14T04:25:17;101119.47;;;22.85;41.80
49801;BME280;35698;50.232;30.540;2023-05-14T04:26:28;101123.66;;;23.07;41.42
49801;BME280;35698;50.232;30.540;2023-05-14T04:27:32;101114.32;;;23.01;41.44
49801;BME280;35698;50.232;30.540;2023-05-14T04:28:35;101114.87;;;23.05;41.39
49801;BME280;35698;50.232;30.540;2023-05-14T04:29:38;101113.30;;;23.12;41.36
49801;BME280;35698;50.232;30.540;2023-05-14T04:30:49;101114.47;;;23.37;41.20
49801;BME280;35698;50.232;30.540;2023-05-14T04:31:52;101106.57;;;23.26;41.51
49801;BME280;35698;50.232;30.540;2023-05-14T04:33:04;101116.09;;;23.47;41.56
49801;BME280;35698;50.232;30.540;2023-05-14T04:34:07;101110.92;;;23.36;41.82
49801;BME280;35698;50.232;30.540;2023-05-14T04:35:18;101110.77;;;23.65;41.84
49801;BME280;35698;50.232;30.540;2023-05-14T04:36:21;101111.92;;;23.63;41.85
49801;BME280;35698;50.232;30.540;2023-05-14T04:37:25;101112.31;;;23.68;41.80
49801;BME280;35698;50.232;30.540;2023-05-14T04:38:36;101107.80;;;23.86;41.57
49801;BME280;35698;50.232;30.540;2023-05-14T04:39:39;101112.26;;;23.77;41.67
49801;BME280;35698;50.232;30.540;2023-05-14T04:40:42;101116.20;;;23.83;41.11
49801;BME280;35698;50.232;30.540;2023-05-14T04:41:54;101106.27;;;24.01;41.54
49801;BME280;35698;50.232;30.540;2023-05-14T04:42:57;101109.28;;;23.98;41.16
49801;BME280;35698;50.232;30.540;2023-05-14T04:44:02;101108.97;;;24.01;41.07
49801;BME280;35698;50.232;30.540;2023-05-14T04:45:06;101112.91;;;24.07;40.69
49801;BME280;35698;50.232;30.540;2023-05-14T04:46:09;101110.36;;;24.05;39.72
49801;BME280;35698;50.232;30.540;2023-05-14T04:47:13;101111.44;;;24.12;39.36
49801;BME280;35698;50.232;30.540;2023-05-14T04:48:16;101117.08;;;24.19;38.76
49801;BME280;35698;50.232;30.540;2023-05-14T04:49:27;101113.89;;;24.41;38.10
49801;BME280;35698;50.232;30.540;2023-05-14T04:50:30;101117.60;;;24.40;37.38
49801;BME280;35698;50.232;30.540;2023-05-14T04:51:34;101111.42;;;24.48;36.67
49801;BME280;35698;50.232;30.540;2023-05-14T04:52:37;101117.67;;;24.48;35.33
49801;BME280;35698;50.232;30.540;2023-05-14T04:53:49;101112.08;;;24.68;35.21
49801;BME280;35698;50.232;30.540;2023-05-14T04:54:52;101115.47;;;24.70;36.21
49801;BME280;35698;50.232;30.540;2023-05-14T04:55:55;101100.86;;;24.80;36.24
49801;BME280;35698;50.232;30.540;2023-05-14T04:57:07;101105.59;;;25.04;36.00
49801;BME280;35698;50.232;30.540;2023-05-14T04:58:10;101110.44;;;24.75;35.98
49801;BME280;35698;50.232;30.540;2023-05-14T04:59:13;101106.69;;;24.94;36.04
49801;BME280;35698;50.232;30.540;2023-05-14T05:00:24;101102.73;;;25.06;35.74
49801;BME280;35698;50.232;30.540;2023-05-14T05:01:28;101108.31;;;24.61;35.42
49801;BME280;35698;50.232;30.540;2023-05-14T05:02:39;101111.23;;;24.67;34.96
49801;BME280;35698;50.232;30.540;2023-05-14T05:03:42;101108.00;;;24.64;35.11
49801;BME280;35698;50.232;30.540;2023-05-14T05:04:54;101103.24;;;24.83;35.20
49801;BME280;35698;50.232;30.540;2023-05-14T05:05:57;101105.63;;;24.87;35.16
49801;BME280;35698;50.232;30.540;2023-05-14T05:07:08;101108.09;;;24.98;35.45
49801;BME280;35698;50.232;30.540;2023-05-14T05:08:12;101107.38;;;24.96;35.46
49801;BME280;35698;50.232;30.540;2023-05-14T05:09:26;101101.41;;;25.10;35.11
49801;BME280;35698;50.232;30.540;2023-05-14T05:10:29;101098.98;;;24.99;35.39
49801;BME280;35698;50.232;30.540;2023-05-14T05:11:41;101111.90;;;25.13;35.77
49801;BME280;35698;50.232;30.540;2023-05-14T05:12:44;101101.73;;;25.15;35.71
49801;BME280;35698;50.232;30.540;2023-05-14T05:14:02;101099.14;;;25.39;35.35
49801;BME280;35698;50.232;30.540;2023-05-14T05:15:07;101104.20;;;25.34;35.87
49801;BME280;35698;50.232;30.540;2023-05-14T05:16:10;101095.23;;;25.34;35.93
49801;BME280;35698;50.232;30.540;2023-05-14T05:17:23;101107.30;;;25.47;35.74
49801;BME280;35698;50.232;30.540;2023-05-14T05:18:26;101108.95;;;25.40;35.95
49801;BME280;35698;50.232;30.540;2023-05-14T05:19:37;101101.33;;;25.36;36.41
49801;BME280;35698;50.232;30.540;2023-05-14T05:20:42;101105.77;;;25.45;36.36
49801;BME280;35698;50.232;30.540;2023-05-14T05:21:53;101102.95;;;25.63;36.10
49801;BME280;35698;50.232;30.540;2023-05-14T05:22:56;101110.55;;;25.59;35.56
49801;BME280;35698;50.232;30.540;2023-05-14T05:24:07;101104.37;;;25.75;34.70
49801;BME280;35698;50.232;30.540;2023-05-14T05:25:11;101104.70;;;25.72;34.75
49801;BME280;35698;50.232;30.540;2023-05-14T05:26:14;101107.08;;;25.75;34.14
49801;BME280;35698;50.232;30.540;2023-05-14T05:27:17;101110.98;;;25.80;34.07
49801;BME280;35698;50.232;30.540;2023-05-14T05:28:20;101102.70;;;25.82;33.81
49801;BME280;35698;50.232;30.540;2023-05-14T05:29:23;101106.60;;;25.88;33.71
49801;BME280;35698;50.232;30.540;2023-05-14T05:30:35;101105.94;;;26.10;33.15
49801;BME280;35698;50.232;30.540;2023-05-14T05:31:38;101114.56;;;26.05;33.08
49801;BME280;35698;50.232;30.540;2023-05-14T05:32:41;101106.10;;;26.08;32.88
49801;BME280;35698;50.232;30.540;2023-05-14T05:33:45;101115.42;;;26.14;32.79
49801;BME280;35698;50.232;30.540;2023-05-14T05:34:48;101109.16;;;26.22;32.82
49801;BME280;35698;50.232;30.540;2023-05-14T05:35:53;101106.97;;;26.25;32.05
49801;BME280;35698;50.232;30.540;2023-05-14T05:36:56;101102.91;;;26.29;32.15
49801;BME280;35698;50.232;30.540;2023-05-14T05:38:07;101109.20;;;26.46;32.20
49801;BME280;35698;50.232;30.540;2023-05-14T05:39:10;101103.45;;;26.41;32.39
49801;BME280;35698;50.232;30.540;2023-05-14T05:40:25;101108.69;;;26.59;32.30
49801;BME280;35698;50.232;30.540;2023-05-14T05:41:28;101108.36;;;26.54;32.28
49801;BME280;35698;50.232;30.540;2023-05-14T05:42:41;101105.80;;;26.68;31.46
49801;BME280;35698;50.232;30.540;2023-05-14T05:43:44;101102.77;;;26.55;31.37
49801;BME280;35698;50.232;30.540;2023-05-14T05:44:47;101103.44;;;26.57;31.37
49801;BME280;35698;50.232;30.540;2023-05-14T05:45:50;101104.28;;;26.66;31.62
49801;BME280;35698;50.232;30.540;2023-05-14T05:46:53;101100.21;;;26.70;31.36
49801;BME280;35698;50.232;30.540;2023-05-14T05:58:28;101104.13;;;27.31;28.84
49801;BME280;35698;50.232;30.540;2023-05-14T05:59:31;101108.76;;;27.14;28.31
49801;BME280;35698;50.232;30.540;2023-05-14T06:00:44;101113.08;;;27.39;29.11
49801;BME280;35698;50.232;30.540;2023-05-14T06:01:47;101108.88;;;27.29;27.90
49801;BME280;35698;50.232;30.540;2023-05-14T06:02:59;101111.47;;;27.14;28.32
49801;BME280;35698;50.232;30.540;2023-05-14T06:04:03;101106.69;;;27.24;28.00
49801;BME280;35698;50.232;30.540;2023-05-14T06:05:15;101113.39;;;27.45;27.68
49801;BME280;35698;50.232;30.540;2023-05-14T06:06:19;101105.64;;;27.33;27.67
49801;BME280;35698;50.232;30.540;2023-05-14T06:07:39;101104.72;;;27.49;27.55
49801;BME280;35698;50.232;30.540;2023-05-14T06:08:42;101108.50;;;27.40;28.18
49801;BME280;35698;50.232;30.540;2023-05-14T06:09:54;101105.88;;;27.63;28.18
49801;BME280;35698;50.232;30.540;2023-05-14T06:10:57;101103.34;;;27.61;28.04
49801;BME280;35698;50.232;30.540;2023-05-14T06:35:17;101106.28;;;28.51;26.65